Aérodrome :
LOGIN :

S'inscrire | Disclaimer

   EN    FR    IT 

 










Légende :    VFR   VFR Marginal   IFR   IFR Intensif   IFR Très Intensif
Visi : 
Plafond : 
>= 8 km
>= 3000ft
5 à 8 km
1000 à 3000 ft
1500m à 5 km
500 à 1000 ft
800 à 1500m
200 à 500 ft
< 800m
< 200 ft
Symboles :   Orages  Brouillard  Fortes neiges  Fortes précipitations  Vent > 20 kt
SIGMETs :   Divers  Orages  Givrage  Turbulence  Onde Orograph.  Cendres Volcan.






- Altitude de l'aérodrome : 919 ft
- Code IATA : IFO


UKLI - Ivano Frankivs'k

DERNIER METAR :
  • 270500Z 00000MPS 6000 NSC M08/M08 Q1017 R28/090070 NOSIG

METARs EXPIRÉS :
  • 270430Z 00000MPS 6000 NSC M07/M08 Q1017 R28/090070 NOSIG
  • 270400Z 22001MPS 5000 BR NSC M07/M08 Q1017 R28/090070 NOSIG
  • 270330Z 00000MPS 7000 2300W BR NSC M08/M08 Q1017 NOSIG
  • 270304Z 00000MPS 4400 BR NSC M07/M08 Q1017 NOSIG

TAF TAF UKLI
Valide du 27 à 03h jusqu'au 27 à 12h UTC


270204Z 2703/2712 VRB01MPS 2100 BR BKN010 TX05/2712Z TNM08/2703Z
TEMPO 2703/2707 0400 FZFG VV003
BECMG 2707/2709 9999 NSW BKN030



MET'MAP, la Météo Aéronautique d'un coup d'oeil ! - Copyright ORBIFLY Décembre 2007 - Disclaimer

ORBIFLY MET'MAP TEAM :

Programmation & Développement : Alexandra Zaïnal
Sur une idée originale de : Baudouin d'Aumeries
Assistance à la programmation : Marc-Olivier Méhu
Soutien technique & logistique : Manuel Goepfert

Contact : metmap@orbifly.com




SOURCES & CREDITS :

   NOAA